createdAt,value
2023-03-17T00:04:54.248Z,5.36
2023-03-17T00:09:56.491Z,5.39
2023-03-17T00:14:58.682Z,5.39
2023-03-17T00:20:00.619Z,5.39
2023-03-17T00:25:02.752Z,5.37
2023-03-17T00:30:05.699Z,5.36
2023-03-17T00:35:29.019Z,5.34
2023-03-17T00:40:31.827Z,5.33
2023-03-17T00:45:34.475Z,5.34
2023-03-17T00:50:36.574Z,5.38
2023-03-17T00:55:39.089Z,5.39
2023-03-17T01:00:41.129Z,5.40
2023-03-17T01:05:44.121Z,5.41
2023-03-17T01:10:50.090Z,5.39
2023-03-17T01:15:56.090Z,5.36
2023-03-17T01:20:59.180Z,5.33
2023-03-17T01:26:01.837Z,5.29
2023-03-17T01:31:04.055Z,5.24
2023-03-17T01:36:06.354Z,5.24
2023-03-17T01:41:08.246Z,5.19
2023-03-17T01:46:21.225Z,5.21
2023-03-17T01:51:27.997Z,5.21
2023-03-17T01:56:30.326Z,5.21
2023-03-17T02:01:39.105Z,5.20
2023-03-17T02:06:55.119Z,5.18
2023-03-17T02:12:01.804Z,5.18
2023-03-17T02:17:04.045Z,5.20
2023-03-17T02:22:06.414Z,5.16
2023-03-17T02:27:17.898Z,5.16
2023-03-17T02:32:20.814Z,5.15
2023-03-17T02:37:25.722Z,5.19
2023-03-17T02:42:28.608Z,5.21
2023-03-17T02:47:33.945Z,5.23
2023-03-17T02:52:36.558Z,5.26
2023-03-17T02:57:38.560Z,5.29
2023-03-17T03:02:41.709Z,5.28
2023-03-17T03:07:43.668Z,5.31
2023-03-17T03:12:46.520Z,5.32
2023-03-17T03:17:48.314Z,5.34
2023-03-17T03:22:50.828Z,5.38
2023-03-17T03:27:52.869Z,5.38
2023-03-17T03:32:57.962Z,5.38
2023-03-17T03:38:00.571Z,5.36
2023-03-17T03:43:16.123Z,5.36
2023-03-17T03:48:24.200Z,5.35
2023-03-17T03:53:26.808Z,5.37
2023-03-17T03:58:28.916Z,5.37
2023-03-17T04:03:31.028Z,5.38
2023-03-17T04:08:33.285Z,5.39
2023-03-17T04:13:35.388Z,5.35
2023-03-17T04:18:37.454Z,5.31
2023-03-17T04:23:39.644Z,5.26
2023-03-17T04:28:41.523Z,5.17
2023-03-17T04:33:44.627Z,5.09
2023-03-17T04:38:46.710Z,5.04
2023-03-17T04:43:48.600Z,5.00
2023-03-17T04:48:50.410Z,4.97
2023-03-17T04:53:52.679Z,4.92
2023-03-17T04:58:54.917Z,4.87
2023-03-17T05:03:57.205Z,4.78
2023-03-17T05:08:59.079Z,4.72
2023-03-17T05:14:01.204Z,4.64
2023-03-17T05:19:03.933Z,4.59
2023-03-17T05:24:06.615Z,4.52
2023-03-17T05:29:09.394Z,4.46
2023-03-17T05:34:11.563Z,4.46
2023-03-17T05:39:14.663Z,4.45
2023-03-17T05:44:16.694Z,4.43
2023-03-17T05:49:19.182Z,4.42
2023-03-17T05:54:22.327Z,4.42
2023-03-17T05:59:24.318Z,4.42
2023-03-17T06:04:33.074Z,4.45
2023-03-17T06:09:35.285Z,4.44
2023-03-17T06:14:37.044Z,4.42
2023-03-17T06:19:38.985Z,4.40
2023-03-17T06:24:40.841Z,4.40
2023-03-17T06:29:42.735Z,4.43
2023-03-17T06:34:44.856Z,4.47
2023-03-17T06:39:48.251Z,4.51
2023-03-17T06:44:52.588Z,4.61
2023-03-17T06:49:54.436Z,4.71
2023-03-17T06:54:56.261Z,4.82
2023-03-17T06:59:58.068Z,4.99
2023-03-17T07:05:00.863Z,5.16
2023-03-17T07:10:03.754Z,5.28
2023-03-17T07:15:06.071Z,5.45
2023-03-17T07:20:09.918Z,5.63
2023-03-17T07:25:11.981Z,5.82
2023-03-17T07:30:19.607Z,6.05
2023-03-17T07:35:22.554Z,6.20
2023-03-17T07:40:27.262Z,6.19
2023-03-17T07:45:30.443Z,6.13
2023-03-17T07:50:35.822Z,6.05
2023-03-17T07:55:39.373Z,5.95
2023-03-17T08:00:41.280Z,5.86
2023-03-17T08:05:44.602Z,5.89
2023-03-17T08:10:46.878Z,5.96
2023-03-17T08:15:49.055Z,6.16
2023-03-17T08:20:51.467Z,6.39
2023-03-17T08:26:01.919Z,6.58
2023-03-17T08:31:13.815Z,6.71
2023-03-17T08:36:17.064Z,6.87
2023-03-17T08:41:22.920Z,7.04
2023-03-17T08:46:28.273Z,7.20
2023-03-17T08:51:34.781Z,7.24
2023-03-17T08:56:37.732Z,7.29
2023-03-17T09:01:41.638Z,7.39
2023-03-17T09:07:01.758Z,7.58
2023-03-17T09:12:06.980Z,7.77
2023-03-17T09:17:09.851Z,8.02
2023-03-17T09:22:17.802Z,8.22
2023-03-17T09:27:19.942Z,8.39
2023-03-17T09:32:22.765Z,8.56
2023-03-17T09:37:24.822Z,8.70
2023-03-17T09:42:49.842Z,8.86
2023-03-17T09:48:21.721Z,8.99
2023-03-17T09:53:34.367Z,9.06
2023-03-17T09:58:38.443Z,9.16
2023-03-17T10:03:40.563Z,9.24
2023-03-17T10:08:51.575Z,9.39
2023-03-17T10:14:28.861Z,9.55
2023-03-17T10:19:30.775Z,9.62
2023-03-17T10:24:34.438Z,9.70
2023-03-17T10:29:36.377Z,9.76
2023-03-17T10:34:39.661Z,9.83
2023-03-17T10:39:49.193Z,9.98
2023-03-17T10:45:32.555Z,10.07
2023-03-17T10:50:37.934Z,10.17
2023-03-17T10:55:49.960Z,10.32
2023-03-17T11:00:58.320Z,10.42
2023-03-17T11:06:04.182Z,10.47
2023-03-17T11:11:10.415Z,10.63
2023-03-17T11:16:24.294Z,10.74
2023-03-17T11:21:32.413Z,10.70
2023-03-17T11:27:00.427Z,10.72
2023-03-17T11:32:02.478Z,10.78
2023-03-17T11:37:22.243Z,10.85
2023-03-17T11:42:30.076Z,10.88
2023-03-17T11:47:49.981Z,10.92
2023-03-17T11:53:36.992Z,10.98
2023-03-17T11:58:46.592Z,11.07
2023-03-17T12:03:57.812Z,11.16
2023-03-17T12:09:16.540Z,11.29
2023-03-17T12:14:28.745Z,11.40
2023-03-17T12:19:54.082Z,11.42
2023-03-17T12:25:21.180Z,11.49
2023-03-17T12:30:52.294Z,11.61
2023-03-17T12:35:54.396Z,11.70
2023-03-17T12:41:26.747Z,11.73
2023-03-17T12:46:34.676Z,11.71
2023-03-17T12:51:40.055Z,11.66
2023-03-17T12:56:47.404Z,11.57
2023-03-17T13:02:15.571Z,11.58
2023-03-17T13:07:27.059Z,11.59
2023-03-17T13:12:44.782Z,11.59
2023-03-17T13:17:46.962Z,11.55
2023-03-17T13:23:13.940Z,11.49
2023-03-17T13:28:24.585Z,11.45
2023-03-17T13:33:33.200Z,11.46
2023-03-17T13:38:35.079Z,11.50
2023-03-17T13:43:58.417Z,11.53
2023-03-17T13:49:18.755Z,11.52
2023-03-17T13:54:26.755Z,11.53
2023-03-17T14:00:05.659Z,11.53
2023-03-17T14:05:17.553Z,11.50
2023-03-17T14:10:23.963Z,11.47
2023-03-17T14:15:48.119Z,11.44
2023-03-17T14:20:55.212Z,11.45
2023-03-17T14:25:59.505Z,11.44
2023-03-17T14:31:07.343Z,11.43
2023-03-17T14:36:14.249Z,11.42
2023-03-17T14:41:22.707Z,11.38
2023-03-17T14:46:32.310Z,11.37
2023-03-17T14:51:36.754Z,11.39
2023-03-17T14:56:43.051Z,11.44
2023-03-17T15:01:49.630Z,11.50
2023-03-17T15:06:54.347Z,11.54
2023-03-17T15:12:18.241Z,11.53
2023-03-17T15:17:28.484Z,11.53
2023-03-17T15:22:32.926Z,11.54
2023-03-17T15:27:34.721Z,11.51
2023-03-17T15:32:36.671Z,11.42
2023-03-17T15:37:38.628Z,11.31
2023-03-17T15:42:40.543Z,11.22
2023-03-17T15:47:44.122Z,11.10
2023-03-17T15:52:46.092Z,11.01
2023-03-17T15:57:54.748Z,10.93
2023-03-17T16:03:02.837Z,10.86
2023-03-17T16:08:04.870Z,10.83
2023-03-17T16:13:06.846Z,10.80
2023-03-17T16:18:19.153Z,10.77
2023-03-17T16:23:27.646Z,10.72
2023-03-17T16:28:32.160Z,10.65
2023-03-17T16:33:39.718Z,10.59
2023-03-17T16:38:44.949Z,10.55
2023-03-17T16:43:54.111Z,10.48
2023-03-17T16:48:56.292Z,10.42
2023-03-17T16:53:58.446Z,10.36
2023-03-17T16:59:01.088Z,10.31
2023-03-17T17:04:03.240Z,10.25
2023-03-17T17:09:05.553Z,10.21
2023-03-17T17:14:07.344Z,10.16
2023-03-17T17:19:17.587Z,10.10
2023-03-17T17:24:19.674Z,10.06
2023-03-17T17:29:21.557Z,10.00
2023-03-17T17:34:23.776Z,9.95
2023-03-17T17:39:25.954Z,9.89
2023-03-17T17:44:27.810Z,9.87
2023-03-17T17:49:29.688Z,9.82
2023-03-17T17:54:33.877Z,9.78
2023-03-17T17:59:35.699Z,9.77
2023-03-17T18:04:37.701Z,9.75
2023-03-17T18:09:39.963Z,9.74
2023-03-17T18:14:42.054Z,9.72
2023-03-17T18:19:44.187Z,9.69
2023-03-17T18:24:48.697Z,9.67
2023-03-17T18:29:50.749Z,9.66
2023-03-17T18:34:52.880Z,9.66
2023-03-17T18:40:11.975Z,9.64
2023-03-17T18:45:16.096Z,9.64
2023-03-17T18:50:18.633Z,9.60
2023-03-17T18:55:21.018Z,9.60
2023-03-17T19:00:25.368Z,9.59
2023-03-17T19:05:27.952Z,9.58
2023-03-17T19:10:30.460Z,9.55
2023-03-17T19:15:32.719Z,9.50
2023-03-17T19:20:36.263Z,9.46
2023-03-17T19:25:38.087Z,9.41
2023-03-17T19:30:40.003Z,9.38
2023-03-17T19:35:44.377Z,9.35
2023-03-17T19:40:46.538Z,9.34
2023-03-17T19:45:48.670Z,9.31
2023-03-17T19:50:51.028Z,9.32
2023-03-17T19:55:52.864Z,9.31
2023-03-17T20:00:54.877Z,9.26
2023-03-17T20:05:56.770Z,9.26
2023-03-17T20:11:01.538Z,9.23
2023-03-17T20:16:04.695Z,9.19
2023-03-17T20:21:12.434Z,9.14
2023-03-17T20:26:14.339Z,9.11
2023-03-17T20:31:16.358Z,9.11
2023-03-17T20:36:18.319Z,9.13
2023-03-17T20:41:21.093Z,9.16
2023-03-17T20:46:24.785Z,9.18
2023-03-17T20:51:27.058Z,9.18
2023-03-17T20:56:30.046Z,9.21
2023-03-17T21:01:36.356Z,9.19
2023-03-17T21:06:38.833Z,9.14
2023-03-17T21:11:41.113Z,9.09
2023-03-17T21:16:44.938Z,9.02
2023-03-17T21:21:46.896Z,8.96
2023-03-17T21:26:48.925Z,8.95
2023-03-17T21:31:51.021Z,8.96
2023-03-17T21:36:53.810Z,8.94
2023-03-17T21:41:56.339Z,8.94
2023-03-17T21:46:58.447Z,8.95
2023-03-17T21:52:00.320Z,8.92
2023-03-17T21:57:02.124Z,8.87
2023-03-17T22:02:04.057Z,8.82
2023-03-17T22:07:06.060Z,8.75
2023-03-17T22:12:08.680Z,8.70
2023-03-17T22:17:10.789Z,8.71
2023-03-17T22:22:12.778Z,8.76
2023-03-17T22:27:15.857Z,8.82
2023-03-17T22:32:17.750Z,8.85
2023-03-17T22:37:22.253Z,8.88
2023-03-17T22:42:24.140Z,8.90
2023-03-17T22:47:26.906Z,8.90
2023-03-17T22:52:29.026Z,8.88
2023-03-17T22:57:31.180Z,8.85
2023-03-17T23:02:33.045Z,8.81
2023-03-17T23:07:49.481Z,8.75
2023-03-17T23:12:52.452Z,8.64
2023-03-17T23:17:54.379Z,8.55
2023-03-17T23:22:56.549Z,8.46
2023-03-17T23:27:58.382Z,8.39
2023-03-17T23:33:01.281Z,8.35
2023-03-17T23:38:04.284Z,8.29
2023-03-17T23:43:06.703Z,8.22
2023-03-17T23:48:10.167Z,8.17
2023-03-17T23:53:12.288Z,8.12
2023-03-17T23:58:17.835Z,8.09
